EDW58T LSGG-LGKR
Flight info
| Callsign | EDW58T |
|---|---|
| Flight time | 1h 46m |
| Altitude | 35000 |
| Route | MEDAM DCT NITAM DCT MOGBO DCT OLKIS DCT KUGIX DCT DIVKU DCT FASAN P92 KAPPO L612 NOSTO |
| Aircraft | A20N/M-SDE2E3FGHIRWXY/LB1 |
Departure
| Time | 2026-05-07 14:01 |
|---|---|
| Airport | Geneva International Airport (LSGG) |
Arrival
| Time | 2026-05-07 15:47 |
|---|---|
| Airport | Corfu Ioannis Kapodistrias International Airport (LGKR) |
| Time | Latitude | Longitude | Altitude | Speed | Heading |
|---|---|---|---|---|---|
| 2026-05-07 13:28 | 46.23021 | 6.10576 | 1411 ft | 0 kts | 136° |
| 2026-05-07 13:48 | 46.23028 | 6.10567 | 1409 ft | 6 kts | 135° |
| 2026-05-07 13:48 | 46.23043 | 6.10540 | 1409 ft | 3 kts | 121° |
| 2026-05-07 13:48 | 46.23050 | 6.10518 | 1413 ft | 2 kts | 97° |
| 2026-05-07 13:49 | 46.23050 | 6.10502 | 1409 ft | 2 kts | 71° |
| 2026-05-07 13:49 | 46.23041 | 6.10480 | 1414 ft | 4 kts | 49° |
| 2026-05-07 13:49 | 46.23031 | 6.10465 | 1412 ft | 4 kts | 45° |
| 2026-05-07 13:49 | 46.23066 | 6.10516 | 1413 ft | 7 kts | 45° |
| 2026-05-07 13:50 | 46.23088 | 6.10549 | 1409 ft | 3 kts | 45° |
| 2026-05-07 13:50 | 46.23095 | 6.10558 | 1407 ft | 0 kts | 45° |
| 2026-05-07 13:53 | 46.23096 | 6.10559 | 1403 ft | 0 kts | 45° |
| 2026-05-07 13:53 | 46.23109 | 6.10578 | 1404 ft | 9 kts | 45° |
| 2026-05-07 13:53 | 46.23165 | 6.10659 | 1406 ft | 12 kts | 46° |
| 2026-05-07 13:53 | 46.23226 | 6.10750 | 1400 ft | 13 kts | 43° |
| 2026-05-07 13:54 | 46.23310 | 6.10799 | 1402 ft | 14 kts | 15° |
| 2026-05-07 13:54 | 46.23386 | 6.10744 | 1405 ft | 13 kts | 315° |
| 2026-05-07 13:54 | 46.23456 | 6.10718 | 1406 ft | 11 kts | 39° |
| 2026-05-07 13:54 | 46.23530 | 6.10826 | 1397 ft | 20 kts | 45° |
| 2026-05-07 13:55 | 46.23635 | 6.10981 | 1394 ft | 24 kts | 46° |
| 2026-05-07 13:55 | 46.23760 | 6.11163 | 1395 ft | 26 kts | 46° |
| 2026-05-07 13:55 | 46.23890 | 6.11354 | 1387 ft | 27 kts | 45° |
| 2026-05-07 13:55 | 46.24024 | 6.11551 | 1385 ft | 28 kts | 45° |
| 2026-05-07 13:56 | 46.24162 | 6.11753 | 1381 ft | 29 kts | 45° |
| 2026-05-07 13:56 | 46.24316 | 6.11978 | 1379 ft | 33 kts | 45° |
| 2026-05-07 13:56 | 46.24478 | 6.12216 | 1377 ft | 34 kts | 45° |
| 2026-05-07 13:56 | 46.24643 | 6.12459 | 1373 ft | 34 kts | 45° |
| 2026-05-07 13:57 | 46.24769 | 6.12641 | 1370 ft | 17 kts | 38° |
| 2026-05-07 13:57 | 46.24860 | 6.12694 | 1369 ft | 11 kts | 16° |
| 2026-05-07 13:57 | 46.24916 | 6.12720 | 1368 ft | 0 kts | 17° |
| 2026-05-07 13:58 | 46.24939 | 6.12729 | 1368 ft | 10 kts | 16° |
| 2026-05-07 13:59 | 46.25009 | 6.12712 | 1367 ft | 10 kts | 307° |
| 2026-05-07 13:59 | 46.24992 | 6.12638 | 1367 ft | 3 kts | 224° |
| 2026-05-07 13:59 | 46.24991 | 6.12638 | 1367 ft | 0 kts | 224° |
| 2026-05-07 14:00 | 46.24988 | 6.12633 | 1367 ft | 5 kts | 224° |
| 2026-05-07 14:00 | 46.24857 | 6.12440 | 1371 ft | 57 kts | 226° |
| 2026-05-07 14:00 | 46.24435 | 6.11818 | 1380 ft | 116 kts | 225° |
| 2026-05-07 14:00 | 46.23735 | 6.10792 | 1395 ft | 168 kts | 225° |
| 2026-05-07 14:01 | 46.22900 | 6.09567 | 1875 ft | 170 kts | 225° |
| 2026-05-07 14:01 | 46.22062 | 6.08355 | 2467 ft | 172 kts | 225° |
| 2026-05-07 14:01 | 46.21209 | 6.07139 | 3142 ft | 173 kts | 226° |
| 2026-05-07 14:01 | 46.20299 | 6.05809 | 3610 ft | 200 kts | 227° |
| 2026-05-07 14:02 | 46.19263 | 6.04256 | 3984 ft | 231 kts | 227° |
| 2026-05-07 14:02 | 46.18074 | 6.02491 | 4483 ft | 255 kts | 227° |
| 2026-05-07 14:02 | 46.16807 | 6.00628 | 5311 ft | 263 kts | 226° |
| 2026-05-07 14:02 | 46.15518 | 5.98726 | 6263 ft | 267 kts | 226° |
| 2026-05-07 14:03 | 46.14216 | 5.96801 | 7180 ft | 269 kts | 225° |
| 2026-05-07 14:03 | 46.12715 | 5.95209 | 8079 ft | 271 kts | 200° |
| 2026-05-07 14:03 | 46.10863 | 5.95000 | 8985 ft | 272 kts | 167° |
| 2026-05-07 14:03 | 46.09155 | 5.96186 | 9854 ft | 277 kts | 141° |
| 2026-05-07 14:04 | 46.07913 | 5.98368 | 10458 ft | 294 kts | 118° |
| 2026-05-07 14:04 | 46.07104 | 6.01199 | 10795 ft | 317 kts | 110° |
| 2026-05-07 14:04 | 46.06374 | 6.04292 | 11254 ft | 334 kts | 110° |
| 2026-05-07 14:04 | 46.05610 | 6.07504 | 11939 ft | 343 kts | 110° |
| 2026-05-07 14:05 | 46.04803 | 6.10717 | 12690 ft | 349 kts | 114° |
| 2026-05-07 14:05 | 46.03472 | 6.13637 | 13423 ft | 352 kts | 137° |
| 2026-05-07 14:05 | 46.01588 | 6.15887 | 14186 ft | 354 kts | 146° |
| 2026-05-07 14:05 | 45.99582 | 6.17978 | 14904 ft | 358 kts | 147° |
| 2026-05-07 14:06 | 45.97544 | 6.20078 | 15612 ft | 363 kts | 146° |
| 2026-05-07 14:06 | 45.95479 | 6.22220 | 16322 ft | 368 kts | 146° |
| 2026-05-07 14:06 | 45.93398 | 6.24394 | 17030 ft | 373 kts | 146° |
| 2026-05-07 14:06 | 45.91291 | 6.26603 | 17710 ft | 377 kts | 146° |
| 2026-05-07 14:07 | 45.89164 | 6.28840 | 18359 ft | 382 kts | 146° |
| 2026-05-07 14:07 | 45.87009 | 6.31124 | 18879 ft | 387 kts | 146° |
| 2026-05-07 14:07 | 45.84833 | 6.33438 | 19468 ft | 391 kts | 146° |
| 2026-05-07 14:07 | 45.82644 | 6.35765 | 20094 ft | 394 kts | 146° |
| 2026-05-07 14:08 | 45.80435 | 6.38113 | 20693 ft | 397 kts | 146° |
| 2026-05-07 14:08 | 45.78203 | 6.40481 | 21287 ft | 401 kts | 146° |
| 2026-05-07 14:08 | 45.75951 | 6.42868 | 21856 ft | 405 kts | 146° |
| 2026-05-07 14:08 | 45.73678 | 6.45274 | 22416 ft | 408 kts | 146° |
| 2026-05-07 14:09 | 45.71384 | 6.47702 | 22980 ft | 412 kts | 146° |
| 2026-05-07 14:09 | 45.69074 | 6.50143 | 23488 ft | 415 kts | 146° |
| 2026-05-07 14:09 | 45.66738 | 6.52607 | 23878 ft | 419 kts | 146° |
| 2026-05-07 14:09 | 45.64379 | 6.55094 | 24291 ft | 422 kts | 146° |
| 2026-05-07 14:10 | 45.62013 | 6.57587 | 24752 ft | 423 kts | 147° |
| 2026-05-07 14:10 | 45.59661 | 6.60062 | 25128 ft | 427 kts | 147° |
| 2026-05-07 14:10 | 45.57259 | 6.62586 | 25531 ft | 430 kts | 147° |
| 2026-05-07 14:10 | 45.54839 | 6.65125 | 25930 ft | 433 kts | 147° |
| 2026-05-07 14:11 | 45.52401 | 6.67683 | 26306 ft | 436 kts | 147° |
| 2026-05-07 14:11 | 45.49946 | 6.70253 | 26689 ft | 439 kts | 147° |
| 2026-05-07 14:11 | 45.47476 | 6.72837 | 27091 ft | 442 kts | 147° |
| 2026-05-07 14:11 | 45.44983 | 6.75417 | 27465 ft | 444 kts | 148° |
| 2026-05-07 14:12 | 45.42458 | 6.77966 | 27778 ft | 447 kts | 149° |
| 2026-05-07 14:12 | 45.39905 | 6.80528 | 28153 ft | 449 kts | 149° |
| 2026-05-07 14:12 | 45.37345 | 6.83092 | 28514 ft | 452 kts | 149° |
| 2026-05-07 14:12 | 45.34766 | 6.85674 | 28855 ft | 454 kts | 149° |
| 2026-05-07 14:13 | 45.32177 | 6.88263 | 29193 ft | 456 kts | 149° |
| 2026-05-07 14:13 | 45.29572 | 6.90867 | 29508 ft | 459 kts | 149° |
| 2026-05-07 14:13 | 45.26979 | 6.93539 | 29822 ft | 464 kts | 146° |
| 2026-05-07 14:13 | 45.24528 | 6.96550 | 30104 ft | 469 kts | 142° |
| 2026-05-07 14:14 | 45.22137 | 6.99729 | 30392 ft | 472 kts | 141° |
| 2026-05-07 14:14 | 45.19788 | 7.02972 | 30762 ft | 471 kts | 140° |
| 2026-05-07 14:14 | 45.17458 | 7.06235 | 31174 ft | 470 kts | 140° |
| 2026-05-07 14:14 | 45.15134 | 7.09489 | 31527 ft | 469 kts | 140° |
| 2026-05-07 14:15 | 45.12810 | 7.12728 | 31853 ft | 469 kts | 140° |
| 2026-05-07 14:15 | 45.10602 | 7.16150 | 32143 ft | 473 kts | 132° |
| 2026-05-07 14:15 | 45.08605 | 7.19865 | 32466 ft | 474 kts | 131° |
| 2026-05-07 14:15 | 45.06669 | 7.23635 | 32780 ft | 474 kts | 130° |
| 2026-05-07 14:16 | 45.04762 | 7.27447 | 33076 ft | 474 kts | 129° |
| 2026-05-07 14:16 | 45.02872 | 7.31268 | 33335 ft | 475 kts | 129° |
| 2026-05-07 14:16 | 45.00983 | 7.35094 | 33615 ft | 474 kts | 129° |
| 2026-05-07 14:16 | 44.99109 | 7.38930 | 33919 ft | 475 kts | 127° |
| 2026-05-07 14:17 | 44.97487 | 7.43020 | 34146 ft | 479 kts | 122° |
| 2026-05-07 14:17 | 44.95980 | 7.47221 | 34385 ft | 479 kts | 120° |
| 2026-05-07 14:17 | 44.94523 | 7.51441 | 34628 ft | 479 kts | 120° |
| 2026-05-07 14:17 | 44.93089 | 7.55681 | 34872 ft | 478 kts | 119° |
| 2026-05-07 14:18 | 44.91661 | 7.59928 | 34959 ft | 479 kts | 120° |
| 2026-05-07 14:18 | 44.88819 | 7.68365 | 34964 ft | 474 kts | 120° |
| 2026-05-07 14:19 | 44.85972 | 7.76736 | 34965 ft | 473 kts | 120° |
| 2026-05-07 14:19 | 44.83130 | 7.85033 | 34962 ft | 473 kts | 120° |
| 2026-05-07 14:20 | 44.80262 | 7.93377 | 34962 ft | 473 kts | 120° |
| 2026-05-07 14:20 | 44.77387 | 8.01719 | 34968 ft | 473 kts | 120° |
| 2026-05-07 14:21 | 44.74510 | 8.10043 | 34967 ft | 473 kts | 120° |
| 2026-05-07 14:21 | 44.71627 | 8.18359 | 34971 ft | 473 kts | 120° |
| 2026-05-07 14:22 | 44.68736 | 8.26673 | 34970 ft | 473 kts | 121° |
| 2026-05-07 14:22 | 44.65842 | 8.34970 | 34973 ft | 473 kts | 121° |
| 2026-05-07 14:23 | 44.62941 | 8.43262 | 34972 ft | 473 kts | 121° |
| 2026-05-07 14:23 | 44.60036 | 8.51540 | 34988 ft | 473 kts | 121° |
| 2026-05-07 14:24 | 44.57122 | 8.59819 | 35002 ft | 473 kts | 121° |
| 2026-05-07 14:24 | 44.54205 | 8.68080 | 35002 ft | 473 kts | 121° |
| 2026-05-07 14:25 | 44.51282 | 8.76325 | 35016 ft | 473 kts | 121° |
| 2026-05-07 14:25 | 44.48351 | 8.84580 | 35018 ft | 473 kts | 121° |
| 2026-05-07 14:26 | 44.45416 | 8.92819 | 35020 ft | 473 kts | 121° |
| 2026-05-07 14:26 | 44.42477 | 9.01047 | 35012 ft | 473 kts | 121° |
| 2026-05-07 14:27 | 44.39531 | 9.09262 | 35008 ft | 473 kts | 122° |
| 2026-05-07 14:27 | 44.36577 | 9.17475 | 35012 ft | 473 kts | 121° |
| 2026-05-07 14:28 | 44.33619 | 9.25680 | 35001 ft | 473 kts | 122° |
| 2026-05-07 14:28 | 44.30650 | 9.33886 | 34997 ft | 473 kts | 122° |
| 2026-05-07 14:29 | 44.28181 | 9.40693 | 34994 ft | 473 kts | 122° |
| 2026-05-07 14:29 | 44.25201 | 9.48887 | 34998 ft | 474 kts | 122° |
| 2026-05-07 14:30 | 44.22215 | 9.57076 | 35005 ft | 474 kts | 122° |
| 2026-05-07 14:30 | 44.19221 | 9.65262 | 35009 ft | 474 kts | 122° |
| 2026-05-07 14:31 | 44.16221 | 9.73437 | 35011 ft | 474 kts | 122° |
| 2026-05-07 14:31 | 44.13211 | 9.81612 | 35014 ft | 474 kts | 122° |
| 2026-05-07 14:32 | 44.10198 | 9.89776 | 35021 ft | 474 kts | 122° |
| 2026-05-07 14:32 | 44.07183 | 9.97925 | 35030 ft | 474 kts | 122° |
| 2026-05-07 14:33 | 44.04161 | 10.06063 | 35020 ft | 474 kts | 123° |
| 2026-05-07 14:33 | 44.01151 | 10.14143 | 35019 ft | 474 kts | 123° |
| 2026-05-07 14:34 | 43.98117 | 10.22266 | 35008 ft | 474 kts | 123° |
| 2026-05-07 14:34 | 43.95059 | 10.30429 | 35005 ft | 474 kts | 123° |
| 2026-05-07 14:35 | 43.92039 | 10.38481 | 35006 ft | 473 kts | 123° |
| 2026-05-07 14:35 | 43.89004 | 10.46651 | 35008 ft | 473 kts | 122° |
| 2026-05-07 14:36 | 43.86015 | 10.54707 | 35007 ft | 473 kts | 123° |
| 2026-05-07 14:36 | 43.83000 | 10.62804 | 35007 ft | 473 kts | 123° |
| 2026-05-07 14:37 | 43.79953 | 10.70952 | 35002 ft | 473 kts | 123° |
| 2026-05-07 14:37 | 43.75425 | 10.83015 | 34993 ft | 473 kts | 123° |
| 2026-05-07 14:38 | 43.72384 | 10.91089 | 34992 ft | 473 kts | 123° |
| 2026-05-07 14:38 | 43.69339 | 10.99149 | 35001 ft | 473 kts | 123° |
| 2026-05-07 14:39 | 43.66289 | 11.07199 | 34989 ft | 473 kts | 123° |
| 2026-05-07 14:39 | 43.63232 | 11.15244 | 34988 ft | 473 kts | 123° |
| 2026-05-07 14:40 | 43.60168 | 11.23285 | 34987 ft | 474 kts | 123° |
| 2026-05-07 14:40 | 43.57096 | 11.31328 | 34992 ft | 474 kts | 123° |
| 2026-05-07 14:41 | 43.53967 | 11.39312 | 34987 ft | 472 kts | 126° |
| 2026-05-07 14:41 | 43.50659 | 11.47109 | 34993 ft | 471 kts | 127° |
| 2026-05-07 14:42 | 43.47308 | 11.54857 | 34987 ft | 471 kts | 127° |
| 2026-05-07 14:42 | 43.43960 | 11.62624 | 34987 ft | 472 kts | 126° |
| 2026-05-07 14:43 | 43.40622 | 11.70393 | 34986 ft | 472 kts | 126° |
| 2026-05-07 14:43 | 43.37284 | 11.78156 | 34986 ft | 472 kts | 127° |
| 2026-05-07 14:44 | 43.33939 | 11.85914 | 34984 ft | 472 kts | 127° |
| 2026-05-07 14:44 | 43.30586 | 11.93669 | 34987 ft | 472 kts | 127° |
| 2026-05-07 14:45 | 43.27228 | 12.01413 | 34981 ft | 472 kts | 127° |
| 2026-05-07 14:45 | 43.23886 | 12.09099 | 34979 ft | 472 kts | 127° |
| 2026-05-07 14:46 | 43.20514 | 12.16835 | 34980 ft | 472 kts | 127° |
| 2026-05-07 14:46 | 43.17138 | 12.24559 | 34986 ft | 473 kts | 127° |
| 2026-05-07 14:47 | 43.13753 | 12.32282 | 34989 ft | 473 kts | 127° |
| 2026-05-07 14:47 | 43.10356 | 12.40012 | 34987 ft | 473 kts | 127° |
| 2026-05-07 14:48 | 43.06956 | 12.47730 | 34990 ft | 474 kts | 127° |
| 2026-05-07 14:48 | 43.03550 | 12.55442 | 34992 ft | 474 kts | 127° |
| 2026-05-07 14:49 | 43.00140 | 12.63142 | 34987 ft | 474 kts | 127° |
| 2026-05-07 14:49 | 42.96720 | 12.70843 | 34983 ft | 474 kts | 127° |
| 2026-05-07 14:50 | 42.93297 | 12.78530 | 34983 ft | 474 kts | 127° |
| 2026-05-07 14:50 | 42.89869 | 12.86211 | 34967 ft | 474 kts | 127° |
| 2026-05-07 14:51 | 42.86432 | 12.93890 | 34987 ft | 475 kts | 128° |
| 2026-05-07 14:51 | 42.82982 | 13.01576 | 34979 ft | 476 kts | 128° |
| 2026-05-07 14:52 | 42.79524 | 13.09258 | 34982 ft | 476 kts | 128° |
| 2026-05-07 14:52 | 42.76067 | 13.16926 | 34980 ft | 475 kts | 128° |
| 2026-05-07 14:53 | 42.72606 | 13.24582 | 34979 ft | 475 kts | 128° |
| 2026-05-07 14:53 | 42.69136 | 13.32236 | 34985 ft | 475 kts | 128° |
| 2026-05-07 14:54 | 42.65666 | 13.39874 | 34985 ft | 475 kts | 128° |
| 2026-05-07 14:54 | 42.62204 | 13.47464 | 34995 ft | 476 kts | 128° |
| 2026-05-07 14:55 | 42.58714 | 13.55101 | 34992 ft | 477 kts | 128° |
| 2026-05-07 14:55 | 42.55211 | 13.62748 | 34999 ft | 478 kts | 128° |
| 2026-05-07 14:56 | 42.51691 | 13.70411 | 35003 ft | 479 kts | 128° |
| 2026-05-07 14:56 | 42.48163 | 13.78074 | 35000 ft | 479 kts | 128° |
| 2026-05-07 14:57 | 42.44625 | 13.85739 | 35009 ft | 480 kts | 128° |
| 2026-05-07 14:57 | 42.41083 | 13.93393 | 35001 ft | 480 kts | 128° |
| 2026-05-07 14:58 | 42.37535 | 14.01040 | 34994 ft | 480 kts | 128° |
| 2026-05-07 14:58 | 42.33980 | 14.08678 | 34995 ft | 480 kts | 128° |
| 2026-05-07 14:59 | 42.30417 | 14.16317 | 34985 ft | 481 kts | 129° |
| 2026-05-07 14:59 | 42.26843 | 14.23959 | 34999 ft | 482 kts | 129° |
| 2026-05-07 15:00 | 42.23253 | 14.31617 | 34997 ft | 483 kts | 129° |
| 2026-05-07 15:00 | 42.19648 | 14.39285 | 34996 ft | 485 kts | 129° |
| 2026-05-07 15:01 | 42.16031 | 14.46962 | 35002 ft | 486 kts | 129° |
| 2026-05-07 15:01 | 42.12392 | 14.54664 | 35000 ft | 488 kts | 129° |
| 2026-05-07 15:02 | 42.08765 | 14.62322 | 34999 ft | 489 kts | 129° |
| 2026-05-07 15:02 | 42.05100 | 14.70042 | 34998 ft | 490 kts | 129° |
| 2026-05-07 15:03 | 42.01424 | 14.77765 | 34996 ft | 490 kts | 129° |
| 2026-05-07 15:03 | 41.97739 | 14.85485 | 34990 ft | 491 kts | 129° |
| 2026-05-07 15:04 | 41.94043 | 14.93210 | 34990 ft | 492 kts | 129° |
| 2026-05-07 15:04 | 41.90335 | 15.00940 | 34992 ft | 493 kts | 129° |
| 2026-05-07 15:05 | 41.86619 | 15.08668 | 34990 ft | 493 kts | 129° |
| 2026-05-07 15:05 | 41.82896 | 15.16387 | 34988 ft | 493 kts | 130° |
| 2026-05-07 15:06 | 41.79164 | 15.24108 | 34989 ft | 493 kts | 130° |
| 2026-05-07 15:06 | 41.75427 | 15.31818 | 34991 ft | 494 kts | 130° |
| 2026-05-07 15:07 | 41.71680 | 15.39530 | 34987 ft | 494 kts | 130° |
| 2026-05-07 15:07 | 41.67923 | 15.47241 | 34987 ft | 495 kts | 130° |
| 2026-05-07 15:08 | 41.64154 | 15.54959 | 34990 ft | 496 kts | 130° |
| 2026-05-07 15:08 | 41.60366 | 15.62694 | 34989 ft | 498 kts | 130° |
| 2026-05-07 15:09 | 41.56567 | 15.70434 | 34991 ft | 499 kts | 130° |
| 2026-05-07 15:09 | 41.52752 | 15.78189 | 34992 ft | 500 kts | 130° |
| 2026-05-07 15:10 | 41.49123 | 15.86139 | 34988 ft | 505 kts | 124° |
| 2026-05-07 15:10 | 41.45827 | 15.94368 | 34989 ft | 507 kts | 123° |
| 2026-05-07 15:11 | 41.42567 | 16.02726 | 34986 ft | 509 kts | 123° |
| 2026-05-07 15:11 | 41.39301 | 16.11093 | 34987 ft | 510 kts | 123° |
| 2026-05-07 15:12 | 41.36013 | 16.19462 | 34992 ft | 511 kts | 123° |
| 2026-05-07 15:12 | 41.32705 | 16.27841 | 34986 ft | 512 kts | 123° |
| 2026-05-07 15:13 | 41.29382 | 16.36225 | 34995 ft | 513 kts | 123° |
| 2026-05-07 15:13 | 41.26051 | 16.44611 | 34994 ft | 514 kts | 123° |
| 2026-05-07 15:14 | 41.22704 | 16.53013 | 34999 ft | 515 kts | 123° |
| 2026-05-07 15:14 | 41.19345 | 16.61422 | 34993 ft | 515 kts | 123° |
| 2026-05-07 15:15 | 41.15978 | 16.69826 | 34990 ft | 517 kts | 123° |
| 2026-05-07 15:15 | 41.12594 | 16.78251 | 34992 ft | 518 kts | 124° |
| 2026-05-07 15:16 | 41.09201 | 16.86673 | 34992 ft | 519 kts | 124° |
| 2026-05-07 15:16 | 41.06369 | 16.93685 | 34997 ft | 520 kts | 124° |
| 2026-05-07 15:17 | 41.02949 | 17.02129 | 35005 ft | 520 kts | 124° |
| 2026-05-07 15:17 | 40.99519 | 17.10577 | 35030 ft | 521 kts | 124° |
| 2026-05-07 15:18 | 40.96075 | 17.19031 | 35032 ft | 522 kts | 124° |
| 2026-05-07 15:18 | 40.92617 | 17.27497 | 35029 ft | 524 kts | 124° |
| 2026-05-07 15:19 | 40.89147 | 17.35969 | 35027 ft | 525 kts | 124° |
| 2026-05-07 15:19 | 40.85647 | 17.44445 | 35027 ft | 525 kts | 125° |
| 2026-05-07 15:20 | 40.82019 | 17.52824 | 35033 ft | 526 kts | 126° |
| 2026-05-07 15:20 | 40.78336 | 17.61176 | 35033 ft | 527 kts | 126° |
| 2026-05-07 15:21 | 40.74646 | 17.69546 | 35040 ft | 528 kts | 126° |
| 2026-05-07 15:21 | 40.70952 | 17.77934 | 35042 ft | 530 kts | 126° |
| 2026-05-07 15:22 | 40.67250 | 17.86332 | 35047 ft | 530 kts | 126° |
| 2026-05-07 15:22 | 40.63563 | 17.94675 | 35046 ft | 530 kts | 126° |
| 2026-05-07 15:23 | 40.59307 | 18.02401 | 35050 ft | 513 kts | 142° |
| 2026-05-07 15:23 | 40.54246 | 18.09003 | 35045 ft | 512 kts | 145° |
| 2026-05-07 15:24 | 40.49116 | 18.15518 | 35036 ft | 513 kts | 145° |
| 2026-05-07 15:24 | 40.43976 | 18.22036 | 35036 ft | 514 kts | 145° |
| 2026-05-07 15:25 | 40.38831 | 18.28551 | 35041 ft | 515 kts | 145° |
| 2026-05-07 15:25 | 40.36248 | 18.31817 | 34828 ft | 515 kts | 145° |
| 2026-05-07 15:25 | 40.33668 | 18.35076 | 34371 ft | 516 kts | 145° |
| 2026-05-07 15:26 | 40.31083 | 18.38336 | 33883 ft | 516 kts | 144° |
| 2026-05-07 15:26 | 40.28496 | 18.41596 | 33349 ft | 515 kts | 144° |
| 2026-05-07 15:26 | 40.25915 | 18.44846 | 32826 ft | 513 kts | 143° |
| 2026-05-07 15:26 | 40.23355 | 18.48068 | 32315 ft | 509 kts | 143° |
| 2026-05-07 15:27 | 40.20812 | 18.51264 | 31810 ft | 505 kts | 142° |
| 2026-05-07 15:27 | 40.18292 | 18.54427 | 31319 ft | 500 kts | 142° |
| 2026-05-07 15:27 | 40.15793 | 18.57560 | 30831 ft | 495 kts | 141° |
| 2026-05-07 15:27 | 40.13319 | 18.60658 | 30359 ft | 491 kts | 141° |
| 2026-05-07 15:28 | 40.10862 | 18.63730 | 29849 ft | 487 kts | 141° |
| 2026-05-07 15:28 | 40.08417 | 18.66786 | 29289 ft | 484 kts | 141° |
| 2026-05-07 15:28 | 40.05994 | 18.69811 | 28757 ft | 481 kts | 141° |
| 2026-05-07 15:28 | 40.03585 | 18.72814 | 28218 ft | 477 kts | 140° |
| 2026-05-07 15:29 | 40.01194 | 18.75793 | 27697 ft | 474 kts | 140° |
| 2026-05-07 15:29 | 39.98806 | 18.78762 | 27169 ft | 474 kts | 140° |
| 2026-05-07 15:29 | 39.96419 | 18.81727 | 26686 ft | 475 kts | 140° |
| 2026-05-07 15:29 | 39.94026 | 18.84697 | 26189 ft | 475 kts | 140° |
| 2026-05-07 15:30 | 39.91631 | 18.87666 | 25703 ft | 476 kts | 140° |
| 2026-05-07 15:30 | 39.89267 | 18.90594 | 25233 ft | 476 kts | 140° |
| 2026-05-07 15:30 | 39.86867 | 18.93565 | 24762 ft | 476 kts | 140° |
| 2026-05-07 15:30 | 39.84469 | 18.96530 | 24266 ft | 476 kts | 140° |
| 2026-05-07 15:31 | 39.82088 | 18.99501 | 23738 ft | 473 kts | 138° |
| 2026-05-07 15:31 | 39.79860 | 19.02620 | 23140 ft | 468 kts | 135° |
| 2026-05-07 15:31 | 39.77719 | 19.05769 | 22532 ft | 461 kts | 135° |
| 2026-05-07 15:31 | 39.75620 | 19.08874 | 21916 ft | 453 kts | 135° |
| 2026-05-07 15:32 | 39.73572 | 19.11901 | 21296 ft | 438 kts | 135° |
| 2026-05-07 15:32 | 39.71598 | 19.14811 | 20694 ft | 423 kts | 135° |
| 2026-05-07 15:32 | 39.69681 | 19.17630 | 20112 ft | 409 kts | 135° |
| 2026-05-07 15:32 | 39.67825 | 19.20354 | 19532 ft | 397 kts | 135° |
| 2026-05-07 15:33 | 39.66017 | 19.23002 | 18963 ft | 386 kts | 135° |
| 2026-05-07 15:33 | 39.64259 | 19.25574 | 18409 ft | 376 kts | 136° |
| 2026-05-07 15:33 | 39.62546 | 19.28079 | 17781 ft | 367 kts | 136° |
| 2026-05-07 15:33 | 39.60872 | 19.30524 | 17163 ft | 358 kts | 136° |
| 2026-05-07 15:34 | 39.59254 | 19.32887 | 16812 ft | 343 kts | 136° |
| 2026-05-07 15:34 | 39.57706 | 19.35165 | 16382 ft | 333 kts | 134° |
| 2026-05-07 15:34 | 39.56451 | 19.37676 | 15813 ft | 334 kts | 117° |
| 2026-05-07 15:34 | 39.55768 | 19.40509 | 15244 ft | 334 kts | 107° |
| 2026-05-07 15:35 | 39.55260 | 19.43478 | 14670 ft | 331 kts | 106° |
| 2026-05-07 15:35 | 39.54790 | 19.46382 | 14111 ft | 327 kts | 106° |
| 2026-05-07 15:35 | 39.54322 | 19.49251 | 13565 ft | 324 kts | 106° |
| 2026-05-07 15:35 | 39.53857 | 19.52057 | 13032 ft | 322 kts | 106° |
| 2026-05-07 15:36 | 39.53385 | 19.54873 | 12638 ft | 318 kts | 106° |
| 2026-05-07 15:36 | 39.52919 | 19.57646 | 12096 ft | 313 kts | 107° |
| 2026-05-07 15:36 | 39.52458 | 19.60374 | 11643 ft | 305 kts | 106° |
| 2026-05-07 15:36 | 39.52008 | 19.63028 | 11210 ft | 298 kts | 106° |
| 2026-05-07 15:37 | 39.51566 | 19.65626 | 10730 ft | 294 kts | 107° |
| 2026-05-07 15:37 | 39.51128 | 19.68194 | 10233 ft | 290 kts | 107° |
| 2026-05-07 15:37 | 39.50695 | 19.70727 | 9723 ft | 286 kts | 107° |
| 2026-05-07 15:37 | 39.50267 | 19.73227 | 9183 ft | 283 kts | 106° |
| 2026-05-07 15:38 | 39.49845 | 19.75694 | 8674 ft | 278 kts | 106° |
| 2026-05-07 15:38 | 39.49429 | 19.78121 | 8159 ft | 275 kts | 106° |
| 2026-05-07 15:38 | 39.49018 | 19.80516 | 7665 ft | 270 kts | 106° |
| 2026-05-07 15:38 | 39.48612 | 19.82873 | 7169 ft | 266 kts | 106° |
| 2026-05-07 15:39 | 39.48212 | 19.85198 | 6688 ft | 263 kts | 106° |
| 2026-05-07 15:39 | 39.47825 | 19.87449 | 6506 ft | 250 kts | 106° |
| 2026-05-07 15:39 | 39.47459 | 19.89580 | 6390 ft | 236 kts | 106° |
| 2026-05-07 15:39 | 39.47114 | 19.91604 | 6300 ft | 227 kts | 106° |
| 2026-05-07 15:40 | 39.46774 | 19.93588 | 6155 ft | 224 kts | 106° |
| 2026-05-07 15:40 | 39.46429 | 19.95546 | 5917 ft | 223 kts | 107° |
| 2026-05-07 15:40 | 39.46091 | 19.97494 | 5582 ft | 222 kts | 106° |
| 2026-05-07 15:40 | 39.45737 | 19.99556 | 4708 ft | 244 kts | 105° |
| 2026-05-07 15:41 | 39.45359 | 20.01715 | 3957 ft | 249 kts | 105° |
| 2026-05-07 15:41 | 39.44972 | 20.03883 | 3319 ft | 246 kts | 105° |
| 2026-05-07 15:41 | 39.44504 | 20.05950 | 2961 ft | 232 kts | 117° |
| 2026-05-07 15:41 | 39.43465 | 20.07411 | 2684 ft | 218 kts | 155° |
| 2026-05-07 15:42 | 39.42017 | 20.07577 | 2411 ft | 213 kts | 198° |
| 2026-05-07 15:42 | 39.40886 | 20.06432 | 2369 ft | 209 kts | 231° |
| 2026-05-07 15:42 | 39.40154 | 20.04778 | 2475 ft | 214 kts | 244° |
| 2026-05-07 15:42 | 39.39791 | 20.02933 | 2481 ft | 212 kts | 265° |
| 2026-05-07 15:43 | 39.40015 | 20.01078 | 2726 ft | 217 kts | 292° |
| 2026-05-07 15:43 | 39.40864 | 19.99457 | 2965 ft | 220 kts | 313° |
| 2026-05-07 15:43 | 39.41999 | 19.98137 | 2988 ft | 221 kts | 328° |
| 2026-05-07 15:43 | 39.43393 | 19.97342 | 2987 ft | 219 kts | 344° |
| 2026-05-07 15:44 | 39.44838 | 19.96692 | 2852 ft | 220 kts | 338° |
| 2026-05-07 15:44 | 39.46197 | 19.95905 | 2747 ft | 208 kts | 336° |
| 2026-05-07 15:44 | 39.47489 | 19.95160 | 2526 ft | 199 kts | 337° |
| 2026-05-07 15:44 | 39.48738 | 19.94478 | 2415 ft | 192 kts | 339° |
| 2026-05-07 15:45 | 39.49984 | 19.93886 | 2196 ft | 193 kts | 343° |
| 2026-05-07 15:45 | 39.51285 | 19.93489 | 1817 ft | 191 kts | 352° |
| 2026-05-07 15:45 | 39.52566 | 19.93207 | 1498 ft | 181 kts | 349° |
| 2026-05-07 15:45 | 39.53761 | 19.92872 | 1299 ft | 172 kts | 348° |
| 2026-05-07 15:46 | 39.56010 | 19.92294 | 794 ft | 158 kts | 350° |
| 2026-05-07 15:46 | 39.57075 | 19.92010 | 544 ft | 157 kts | 351° |
| 2026-05-07 15:46 | 39.58140 | 19.91745 | 299 ft | 154 kts | 350° |
| 2026-05-07 15:47 | 39.59175 | 19.91477 | 57 ft | 149 kts | 350° |
| 2026-05-07 15:47 | 39.60113 | 19.91236 | 11 ft | 112 kts | 348° |
| 2026-05-07 15:47 | 39.60632 | 19.91103 | 8 ft | 48 kts | 349° |
| 2026-05-07 15:47 | 39.60849 | 19.91046 | 9 ft | 18 kts | 347° |
| 2026-05-07 15:48 | 39.60948 | 19.91019 | 8 ft | 11 kts | 348° |
| 2026-05-07 15:48 | 39.61018 | 19.91012 | 8 ft | 9 kts | 22° |
| 2026-05-07 15:48 | 39.61051 | 19.91076 | 10 ft | 7 kts | 65° |
| 2026-05-07 15:48 | 39.61044 | 19.91119 | 11 ft | 6 kts | 146° |
| 2026-05-07 15:49 | 39.60985 | 19.91140 | 11 ft | 10 kts | 168° |
| 2026-05-07 15:49 | 39.60919 | 19.91157 | 11 ft | 10 kts | 169° |
| 2026-05-07 15:49 | 39.60849 | 19.91177 | 10 ft | 11 kts | 168° |
| 2026-05-07 15:49 | 39.60787 | 19.91193 | 10 ft | 7 kts | 168° |
| 2026-05-07 15:50 | 39.60774 | 19.91235 | 11 ft | 6 kts | 83° |
| 2026-05-07 15:50 | 39.60782 | 19.91284 | 11 ft | 5 kts | 79° |
| 2026-05-07 15:50 | 39.60759 | 19.91309 | 11 ft | 9 kts | 168° |
| 2026-05-07 15:50 | 39.60708 | 19.91323 | 11 ft | 2 kts | 168° |
| 2026-05-07 15:51 | 39.60691 | 19.91334 | 11 ft | 2 kts | 120° |
| 2026-05-07 15:51 | 39.60695 | 19.91358 | 11 ft | 3 kts | 78° |
| 2026-05-07 15:51 | 39.60697 | 19.91367 | 11 ft | 1 kts | 80° |
| 2026-05-07 15:51 | 39.60697 | 19.91368 | 11 ft | 0 kts | 80° |